createdAt,value
2023-04-11T00:02:52.858Z,101744.78
2023-04-11T00:07:55.467Z,101747.53
2023-04-11T00:12:57.914Z,101746.91
2023-04-11T00:18:00.368Z,101753.59
2023-04-11T00:23:02.831Z,101750.78
2023-04-11T00:28:05.401Z,101747.50
2023-04-11T00:33:07.979Z,101751.94
2023-04-11T00:38:10.429Z,101731.63
2023-04-11T00:43:12.903Z,101735.47
2023-04-11T00:48:15.964Z,101735.78
2023-04-11T00:53:19.091Z,101743.25
2023-04-11T00:58:21.682Z,101745.63
2023-04-11T01:03:24.339Z,101743.03
2023-04-11T01:08:27.313Z,101749.09
2023-04-11T01:13:32.511Z,101739.06
2023-04-11T01:18:35.155Z,101750.66
2023-04-11T01:23:37.634Z,101744.06
2023-04-11T01:28:40.426Z,101754.06
2023-04-11T01:33:43.576Z,101754.88
2023-04-11T01:38:46.082Z,101751.34
2023-04-11T01:43:48.968Z,101758.91
2023-04-11T01:48:55.368Z,101769.22
2023-04-11T01:53:57.962Z,101774.31
2023-04-11T01:59:00.480Z,101773.84
2023-04-11T02:04:03.027Z,101786.13
2023-04-11T02:09:08.341Z,101787.81
2023-04-11T02:14:14.692Z,101794.28
2023-04-11T02:19:38.858Z,101799.56
2023-04-11T02:24:41.892Z,101803.25
2023-04-11T02:29:44.324Z,101804.97
2023-04-11T02:34:46.878Z,101813.72
2023-04-11T02:39:49.241Z,101819.13
2023-04-11T02:44:54.904Z,101820.53
2023-04-11T02:50:00.645Z,101823.06
2023-04-11T02:55:08.606Z,101816.13
2023-04-11T03:00:12.167Z,101822.78
2023-04-11T03:05:22.216Z,101822.50
2023-04-11T03:10:27.675Z,101815.44
2023-04-11T03:15:32.638Z,101830.75
2023-04-11T03:20:40.166Z,101825.78
2023-04-11T03:25:46.089Z,101832.41
2023-04-11T03:30:50.802Z,101822.25
2023-04-11T03:35:57.801Z,101830.03
2023-04-11T03:41:00.514Z,101829.13
2023-04-11T03:46:03.424Z,101817.63
2023-04-11T03:51:13.453Z,101829.00
2023-04-11T03:56:24.735Z,101836.25
2023-04-11T04:01:27.734Z,101838.41
2023-04-11T04:06:36.228Z,101818.28
2023-04-11T04:11:39.916Z,101819.47
2023-04-11T04:16:42.745Z,101818.81
2023-04-11T04:21:47.139Z,101817.00
2023-04-11T04:26:53.138Z,101813.06
2023-04-11T04:32:24.234Z,101796.00
2023-04-11T04:37:32.856Z,101784.72
2023-04-11T04:42:58.556Z,101784.50
2023-04-11T04:48:17.507Z,101772.41
2023-04-11T04:53:20.025Z,101773.56
2023-04-11T04:58:28.191Z,101769.25
2023-04-11T05:03:35.921Z,101767.16
2023-04-11T05:08:41.313Z,101756.38
2023-04-11T05:13:46.259Z,101762.31
2023-04-11T05:18:48.910Z,101760.09
2023-04-11T05:23:51.371Z,101751.09
2023-04-11T05:28:54.060Z,101759.63
2023-04-11T05:33:59.396Z,101762.72
2023-04-11T05:39:04.473Z,101755.22
2023-04-11T05:44:07.066Z,101743.22
2023-04-11T05:49:10.266Z,101751.59
2023-04-11T05:54:19.119Z,101744.94
2023-04-11T05:59:26.501Z,101763.59
2023-04-11T06:04:31.059Z,101755.88
2023-04-11T06:09:34.273Z,101752.34
2023-04-11T06:14:39.598Z,101757.25
2023-04-11T06:19:42.824Z,101756.06
2023-04-11T06:24:48.010Z,101767.22
2023-04-11T06:29:50.435Z,101767.72
2023-04-11T06:34:53.160Z,101749.56
2023-04-11T06:39:55.650Z,101743.53
2023-04-11T06:44:58.093Z,101753.31
2023-04-11T06:50:00.602Z,101748.53
2023-04-11T06:55:03.019Z,101731.50
2023-04-11T07:00:07.866Z,101726.53
2023-04-11T07:05:10.552Z,101727.31
2023-04-11T07:10:13.133Z,101718.19
2023-04-11T07:15:15.652Z,101712.13
2023-04-11T07:20:18.197Z,101720.94
2023-04-11T07:25:22.939Z,101707.00
2023-04-11T07:30:25.544Z,101701.94
2023-04-11T07:35:28.951Z,101697.16
2023-04-11T07:40:31.665Z,101686.81
2023-04-11T07:45:34.482Z,101672.81
2023-04-11T07:50:36.956Z,101682.66
2023-04-11T07:55:39.443Z,101669.06
2023-04-11T08:00:42.211Z,101667.06
2023-04-11T08:05:44.755Z,101668.59
2023-04-11T08:10:47.219Z,101675.03
2023-04-11T08:15:49.699Z,101659.22
2023-04-11T08:20:52.223Z,101662.41
2023-04-11T08:25:54.697Z,101652.03
2023-04-11T08:30:58.758Z,101651.84
2023-04-11T08:36:01.341Z,101654.59
2023-04-11T08:41:03.878Z,101635.22
2023-04-11T08:46:13.064Z,101636.47
2023-04-11T08:51:27.074Z,101625.97
2023-04-11T08:56:29.491Z,101635.88
2023-04-11T09:01:34.403Z,101635.09
2023-04-11T09:06:37.292Z,101635.09
2023-04-11T09:11:55.625Z,101616.81
2023-04-11T09:17:00.261Z,101622.47
2023-04-11T09:22:06.477Z,101627.13
2023-04-11T09:27:17.989Z,101599.97
2023-04-11T09:32:27.567Z,101605.00
2023-04-11T09:38:03.785Z,101592.97
2023-04-11T09:43:06.312Z,101592.63
2023-04-11T09:48:09.321Z,101572.34
2023-04-11T09:53:11.942Z,101576.03
2023-04-11T09:58:15.251Z,101551.69
2023-04-11T10:03:20.579Z,101529.50
2023-04-11T10:08:30.861Z,101540.06
2023-04-11T10:13:51.939Z,101513.78
2023-04-11T10:19:19.402Z,101497.00
2023-04-11T10:24:22.476Z,101506.81
2023-04-11T10:29:31.090Z,101492.41
2023-04-11T10:34:33.581Z,101492.56
2023-04-11T10:39:54.194Z,101488.31
2023-04-11T10:45:19.702Z,101473.00
2023-04-11T10:50:28.019Z,101462.19
2023-04-11T10:55:42.942Z,101461.72
2023-04-11T11:00:51.139Z,101447.91
2023-04-11T11:06:02.588Z,101442.03
2023-04-11T11:11:07.140Z,101428.00
2023-04-11T11:24:47.442Z,101397.91
2023-04-11T11:29:50.569Z,101388.19
2023-04-11T11:34:53.723Z,101383.94
2023-04-11T11:39:56.488Z,101374.53
2023-04-11T11:45:18.505Z,101377.22
2023-04-11T11:50:32.737Z,101357.22
2023-04-11T11:55:35.266Z,101374.84
2023-04-11T12:00:39.764Z,101343.25
2023-04-11T12:05:43.492Z,101341.69
2023-04-11T12:10:50.455Z,101345.66
2023-04-11T12:15:57.327Z,101328.09
2023-04-11T12:21:00.114Z,101311.34
2023-04-11T12:26:02.426Z,101311.22
2023-04-11T12:31:05.036Z,101305.44
2023-04-11T12:36:10.747Z,101304.91
2023-04-11T12:41:31.109Z,101292.06
2023-04-11T12:46:34.769Z,101299.06
2023-04-11T12:51:37.064Z,101281.38
2023-04-11T12:56:41.015Z,101274.53
2023-04-11T13:01:43.860Z,101287.19
2023-04-11T13:06:47.788Z,101278.03
2023-04-11T13:11:49.914Z,101270.84
2023-04-11T13:16:52.352Z,101267.56
2023-04-11T13:21:54.745Z,101267.19
2023-04-11T13:26:57.423Z,101259.81
2023-04-11T13:31:59.778Z,101253.09
2023-04-11T13:37:02.479Z,101266.03
2023-04-11T13:42:04.908Z,101271.78
2023-04-11T13:47:07.264Z,101248.22
2023-04-11T13:52:09.549Z,101259.94
2023-04-11T13:57:11.927Z,101244.03
2023-04-11T14:02:14.272Z,101239.91
2023-04-11T14:07:16.569Z,101227.50
2023-04-11T14:12:18.918Z,101232.00
2023-04-11T14:17:21.692Z,101224.84
2023-04-11T14:22:44.168Z,101249.53
2023-04-11T14:28:05.102Z,101243.97
2023-04-11T14:33:07.574Z,101231.75
2023-04-11T14:38:10.040Z,101228.34
2023-04-11T14:43:12.618Z,101230.56
2023-04-11T14:48:14.911Z,101232.66
2023-04-11T14:53:17.297Z,101226.00
2023-04-11T14:58:38.098Z,101206.63
2023-04-11T15:03:41.272Z,101211.84
2023-04-11T15:08:43.910Z,101215.78
2023-04-11T15:13:48.466Z,101202.44
2023-04-11T15:18:50.860Z,101198.19
2023-04-11T15:23:53.305Z,101189.59
2023-04-11T15:28:55.902Z,101187.41
2023-04-11T15:34:01.493Z,101190.50
2023-04-11T15:39:04.850Z,101180.06
2023-04-11T15:44:07.300Z,101176.16
2023-04-11T15:49:09.635Z,101167.22
2023-04-11T15:54:11.976Z,101158.84
2023-04-11T15:59:15.862Z,101167.59
2023-04-11T16:04:20.770Z,101161.84
2023-04-11T16:09:23.181Z,101166.41
2023-04-11T16:14:25.650Z,101165.56
2023-04-11T16:19:28.055Z,101165.84
2023-04-11T16:24:30.762Z,101172.56
2023-04-11T16:29:33.179Z,101178.16
2023-04-11T16:34:35.516Z,101169.84
2023-04-11T16:39:37.896Z,101185.25
2023-04-11T16:44:40.223Z,101172.88
2023-04-11T16:49:43.954Z,101164.34
2023-04-11T16:54:47.411Z,101175.75
2023-04-11T16:59:49.720Z,101170.31
2023-04-11T17:04:51.985Z,101169.19
2023-04-11T17:09:54.368Z,101176.31
2023-04-11T17:14:56.836Z,101173.66
2023-04-11T17:19:59.271Z,101188.16
2023-04-11T17:25:01.801Z,101174.59
2023-04-11T17:30:06.097Z,101179.41
2023-04-11T17:35:09.051Z,101176.63
2023-04-11T17:40:13.033Z,101176.47
2023-04-11T17:45:18.526Z,101177.81
2023-04-11T17:50:21.491Z,101180.41
2023-04-11T17:55:24.069Z,101178.28
2023-04-11T18:00:26.820Z,101178.63
2023-04-11T18:05:33.860Z,101183.06
2023-04-11T18:10:36.317Z,101178.47
2023-04-11T18:15:38.688Z,101167.53
2023-04-11T18:20:41.023Z,101173.41
2023-04-11T18:25:44.303Z,101173.19
2023-04-11T18:30:46.624Z,101177.94
2023-04-11T18:35:49.059Z,101168.50
2023-04-11T18:40:55.297Z,101164.16
2023-04-11T18:46:01.093Z,101150.59
2023-04-11T18:51:05.255Z,101146.91
2023-04-11T18:56:08.178Z,101145.53
2023-04-11T19:01:16.581Z,101140.19
2023-04-11T19:06:19.815Z,101124.69
2023-04-11T19:11:22.522Z,101125.84
2023-04-11T19:16:26.571Z,101129.81
2023-04-11T19:21:29.128Z,101129.00
2023-04-11T19:26:32.692Z,101114.88
2023-04-11T19:31:35.028Z,101112.41
2023-04-11T19:36:37.383Z,101118.25
2023-04-11T19:41:44.740Z,101105.84
2023-04-11T19:46:47.261Z,101113.19
2023-04-11T19:51:49.651Z,101108.94
2023-04-11T19:56:55.238Z,101112.59
2023-04-11T20:02:01.728Z,101108.94
2023-04-11T20:07:04.492Z,101101.28
2023-04-11T20:12:07.408Z,101103.22
2023-04-11T20:17:09.823Z,101102.06
2023-04-11T20:22:17.587Z,101106.06
2023-04-11T20:27:19.964Z,101106.13
2023-04-11T20:32:22.515Z,101104.03
2023-04-11T20:37:24.833Z,101104.59
2023-04-11T20:42:47.737Z,101101.91
2023-04-11T20:47:50.498Z,101110.03
2023-04-11T20:52:53.267Z,101098.97
2023-04-11T20:57:55.757Z,101098.06
2023-04-11T21:02:58.309Z,101104.28
2023-04-11T21:08:00.865Z,101107.19
2023-04-11T21:13:03.300Z,101106.81
2023-04-11T21:18:24.255Z,101096.66
2023-04-11T21:23:26.696Z,101095.31
2023-04-11T21:28:32.528Z,101100.91
2023-04-11T21:33:53.364Z,101094.41
2023-04-11T21:38:55.906Z,101092.03
2023-04-11T21:44:17.004Z,101087.09
2023-04-11T21:49:19.363Z,101088.09
2023-04-11T21:54:21.744Z,101087.78
2023-04-11T21:59:24.121Z,101078.28
2023-04-11T22:04:28.952Z,101076.22
2023-04-11T22:09:50.681Z,101076.53
2023-04-11T22:14:56.925Z,101083.38
2023-04-11T22:19:59.426Z,101067.47
2023-04-11T22:25:01.746Z,101058.94
2023-04-11T22:30:24.702Z,101056.38
2023-04-11T22:35:27.342Z,101047.69
2023-04-11T22:40:30.541Z,101038.06
2023-04-11T22:45:36.450Z,101030.59
2023-04-11T22:50:39.323Z,101024.78
2023-04-11T22:55:59.991Z,101009.75
2023-04-11T23:01:02.340Z,101010.38
2023-04-11T23:06:05.367Z,100998.97
2023-04-11T23:11:07.898Z,100993.06
2023-04-11T23:16:10.338Z,100981.91
2023-04-11T23:21:15.810Z,100969.19
2023-04-11T23:26:23.233Z,100968.88
2023-04-11T23:31:25.583Z,100964.41
2023-04-11T23:36:29.646Z,100961.97
2023-04-11T23:41:32.688Z,100956.75
2023-04-11T23:46:35.081Z,100964.63
2023-04-11T23:51:37.422Z,100950.00
2023-04-11T23:56:39.770Z,100949.81
